createdAt,value
2018-12-16T00:01:35.996Z,59.56
2018-12-16T00:04:04.368Z,59.70
2018-12-16T00:06:31.959Z,59.92
2018-12-16T00:08:59.370Z,59.56
2018-12-16T00:11:26.825Z,59.79
2018-12-16T00:13:54.253Z,59.74
2018-12-16T00:16:21.662Z,59.63
2018-12-16T00:18:49.156Z,59.65
2018-12-16T00:21:16.574Z,59.94
2018-12-16T00:23:43.992Z,59.76
2018-12-16T00:26:11.434Z,59.48
2018-12-16T00:28:38.908Z,60.01
2018-12-16T00:31:06.319Z,59.91
2018-12-16T00:33:33.782Z,62.39
2018-12-16T00:36:01.205Z,61.51
2018-12-16T00:38:28.638Z,61.13
2018-12-16T00:40:56.073Z,60.19
2018-12-16T00:43:23.502Z,60.45
2018-12-16T00:45:50.941Z,60.27
2018-12-16T00:48:18.374Z,60.39
2018-12-16T00:50:45.812Z,60.55
2018-12-16T00:53:13.235Z,60.31
2018-12-16T00:55:40.681Z,60.06
2018-12-16T00:58:08.134Z,60.37
2018-12-16T01:00:36.523Z,59.79
2018-12-16T01:03:03.922Z,60.71
2018-12-16T01:05:31.343Z,61.05
2018-12-16T01:07:58.746Z,60.99
2018-12-16T01:10:26.209Z,61.34
2018-12-16T01:12:53.633Z,61.42
2018-12-16T01:15:21.042Z,60.54
2018-12-16T01:17:48.473Z,60.02
2018-12-16T01:20:15.894Z,60.58
2018-12-16T01:22:43.791Z,60.32
2018-12-16T01:25:10.742Z,60.48
2018-12-16T01:27:38.142Z,60.56
2018-12-16T01:30:05.584Z,60.46
2018-12-16T01:32:32.994Z,61.81
2018-12-16T01:35:00.425Z,60.57
2018-12-16T01:37:27.842Z,60.70
2018-12-16T01:39:55.289Z,60.46
2018-12-16T01:42:22.688Z,60.84
2018-12-16T01:44:50.121Z,60.37
2018-12-16T01:47:17.519Z,60.46
2018-12-16T01:49:44.953Z,60.32
2018-12-16T01:52:12.368Z,61.13
2018-12-16T01:54:39.817Z,60.77
2018-12-16T01:57:07.236Z,60.49
2018-12-16T01:59:34.652Z,60.30
2018-12-16T02:02:02.089Z,60.23
2018-12-16T02:04:29.501Z,60.23
2018-12-16T02:06:56.947Z,60.24
2018-12-16T02:09:24.374Z,61.17
2018-12-16T02:11:51.819Z,61.05
2018-12-16T02:14:19.256Z,61.68
2018-12-16T02:16:46.692Z,61.09
2018-12-16T02:19:14.102Z,60.59
2018-12-16T02:21:41.528Z,60.82
2018-12-16T02:24:08.952Z,60.80
2018-12-16T02:26:36.377Z,60.72
2018-12-16T02:31:36.148Z,62.03
2018-12-16T02:34:03.570Z,61.18
2018-12-16T02:36:30.982Z,61.11
2018-12-16T02:38:58.404Z,60.79
2018-12-16T02:41:25.817Z,60.49
2018-12-16T02:43:53.354Z,60.39
2018-12-16T02:46:20.779Z,60.53
2018-12-16T02:48:48.210Z,60.42
2018-12-16T02:51:15.615Z,60.67
2018-12-16T02:53:43.059Z,60.36
2018-12-16T02:56:11.480Z,61.00
2018-12-16T02:58:37.938Z,61.70
2018-12-16T03:01:05.367Z,63.42
2018-12-16T03:03:32.799Z,64.75
2018-12-16T03:06:00.215Z,65.86
2018-12-16T03:08:27.665Z,65.70
2018-12-16T03:10:55.104Z,66.74
2018-12-16T03:13:22.545Z,68.52
2018-12-16T03:15:49.972Z,68.91
2018-12-16T03:18:18.030Z,68.46
2018-12-16T03:20:45.453Z,69.50
2018-12-16T03:23:12.974Z,67.98
2018-12-16T03:25:40.414Z,69.17
2018-12-16T03:28:07.834Z,67.71
2018-12-16T03:30:35.262Z,67.93
2018-12-16T03:33:04.742Z,70.38
2018-12-16T03:35:32.273Z,68.91
2018-12-16T03:37:59.721Z,68.63
2018-12-16T03:40:27.149Z,69.11
2018-12-16T03:42:54.548Z,68.06
2018-12-16T03:45:21.979Z,68.31
2018-12-16T03:47:49.465Z,68.44
2018-12-16T03:50:16.857Z,68.18
2018-12-16T03:52:44.278Z,67.79
2018-12-16T03:55:11.700Z,68.17
2018-12-16T03:57:39.129Z,67.66
2018-12-16T04:00:06.566Z,67.59
2018-12-16T04:02:33.984Z,68.19
2018-12-16T04:05:01.396Z,67.19
2018-12-16T04:07:28.814Z,66.87
2018-12-16T04:09:56.232Z,67.67
2018-12-16T04:12:23.659Z,68.46
2018-12-16T04:14:51.063Z,67.98
2018-12-16T04:17:18.483Z,67.75
2018-12-16T04:19:45.893Z,68.51
2018-12-16T04:22:13.314Z,68.33
2018-12-16T04:24:40.728Z,69.13
2018-12-16T04:27:08.169Z,68.67
2018-12-16T04:29:36.436Z,69.26
2018-12-16T04:32:03.857Z,70.01
2018-12-16T04:34:31.290Z,71.10
2018-12-16T04:36:58.690Z,70.75
2018-12-16T04:39:26.135Z,72.32
2018-12-16T04:41:53.562Z,71.89
2018-12-16T04:44:21.000Z,72.05
2018-12-16T04:46:48.421Z,72.17
2018-12-16T04:49:15.839Z,70.78
2018-12-16T04:51:43.242Z,70.91
2018-12-16T04:54:11.598Z,71.55
2018-12-16T04:56:39.069Z,72.06
2018-12-16T04:59:06.532Z,72.94
2018-12-16T05:01:33.935Z,73.00
2018-12-16T05:04:01.343Z,73.18
2018-12-16T05:06:28.782Z,73.86
2018-12-16T05:08:56.201Z,71.94
2018-12-16T05:11:23.648Z,72.37
2018-12-16T05:13:51.090Z,72.46
2018-12-16T05:16:18.513Z,71.44
2018-12-16T05:18:45.941Z,70.89
2018-12-16T05:21:13.365Z,71.76
2018-12-16T05:23:41.999Z,72.34
2018-12-16T05:26:08.246Z,72.60
2018-12-16T05:28:35.682Z,72.71
2018-12-16T05:31:03.122Z,72.66
2018-12-16T05:33:30.537Z,71.74
2018-12-16T05:35:57.993Z,73.84
2018-12-16T05:38:25.399Z,72.58
2018-12-16T05:40:52.856Z,72.21
2018-12-16T05:43:20.277Z,72.81
2018-12-16T05:45:48.151Z,72.98
2018-12-16T05:48:15.210Z,72.76
2018-12-16T05:50:42.638Z,72.10
2018-12-16T05:53:10.066Z,73.37
2018-12-16T05:55:37.501Z,72.73
2018-12-16T05:58:04.924Z,73.00
2018-12-16T06:00:32.476Z,74.14
2018-12-16T06:02:59.795Z,73.88
2018-12-16T06:05:27.202Z,73.11
2018-12-16T06:07:54.630Z,73.08
2018-12-16T06:10:22.039Z,72.34
2018-12-16T06:12:49.475Z,72.97
2018-12-16T06:15:16.901Z,72.42
2018-12-16T06:17:44.343Z,73.37
2018-12-16T06:20:11.771Z,73.11
2018-12-16T06:22:39.250Z,74.78
2018-12-16T06:25:06.677Z,73.05
2018-12-16T06:27:34.105Z,72.76
2018-12-16T06:30:01.536Z,73.86
2018-12-16T06:32:29.008Z,73.37
2018-12-16T06:34:56.432Z,73.12
2018-12-16T06:37:23.859Z,74.98
2018-12-16T06:39:51.295Z,74.93
2018-12-16T06:42:18.727Z,74.46
2018-12-16T06:44:46.170Z,73.58
2018-12-16T06:47:13.567Z,74.38
2018-12-16T06:49:41.029Z,74.50
2018-12-16T06:52:08.463Z,75.79
2018-12-16T06:54:35.898Z,76.22
2018-12-16T06:57:03.298Z,75.89
2018-12-16T06:59:30.726Z,75.77
2018-12-16T07:01:58.155Z,75.71
2018-12-16T07:04:25.584Z,75.39
2018-12-16T07:06:53.253Z,74.74
2018-12-16T07:09:20.648Z,75.53
2018-12-16T07:11:48.138Z,75.11
2018-12-16T07:14:15.569Z,74.41
2018-12-16T07:16:42.999Z,74.96
2018-12-16T07:19:10.429Z,74.57
2018-12-16T07:21:37.905Z,74.31
2018-12-16T07:24:09.160Z,74.01
2018-12-16T07:26:33.005Z,74.36
2018-12-16T07:29:00.541Z,74.73
2018-12-16T07:31:28.138Z,74.21
2018-12-16T07:33:55.589Z,73.71
2018-12-16T07:36:23.014Z,74.11
2018-12-16T07:38:50.436Z,74.32
2018-12-16T07:41:17.869Z,74.12
2018-12-16T07:43:45.323Z,73.96
2018-12-16T07:46:12.757Z,73.88
2018-12-16T07:48:40.283Z,74.11
2018-12-16T07:51:07.733Z,74.32
2018-12-16T07:53:35.150Z,73.25
2018-12-16T07:56:03.557Z,75.25
2018-12-16T07:58:31.065Z,75.17
2018-12-16T08:00:58.494Z,75.11
2018-12-16T08:03:25.950Z,74.70
2018-12-16T08:05:53.388Z,74.96
2018-12-16T08:08:20.825Z,75.48
2018-12-16T08:10:48.253Z,75.60
2018-12-16T08:13:15.685Z,74.78
2018-12-16T08:15:43.197Z,75.12
2018-12-16T08:18:10.630Z,74.44
2018-12-16T08:20:38.074Z,74.54
2018-12-16T08:23:05.558Z,76.09
2018-12-16T08:25:33.030Z,76.03
2018-12-16T08:28:00.472Z,76.55
2018-12-16T08:30:28.907Z,76.64
2018-12-16T08:32:56.331Z,76.45
2018-12-16T08:35:23.760Z,76.32
2018-12-16T08:37:51.171Z,77.09
2018-12-16T08:40:18.599Z,75.65
2018-12-16T08:42:46.026Z,76.21
2018-12-16T08:45:13.476Z,76.91
2018-12-16T08:47:40.902Z,75.77
2018-12-16T08:50:08.372Z,77.53
2018-12-16T08:52:35.795Z,77.35
2018-12-16T08:55:03.245Z,76.42
2018-12-16T08:57:30.687Z,77.11
2018-12-16T08:59:58.116Z,77.66
2018-12-16T09:02:25.561Z,77.13
2018-12-16T09:04:52.967Z,77.35
2018-12-16T09:07:20.403Z,78.91
2018-12-16T09:09:47.814Z,79.58
2018-12-16T09:12:15.266Z,79.71
2018-12-16T09:14:42.918Z,80.31
2018-12-16T09:17:10.357Z,79.68
2018-12-16T09:19:37.790Z,79.02
2018-12-16T09:22:05.258Z,79.02
2018-12-16T09:24:37.211Z,79.61
2018-12-16T09:27:00.192Z,79.77
2018-12-16T09:29:27.613Z,79.25
2018-12-16T09:31:55.147Z,79.27
2018-12-16T09:34:22.575Z,78.54
2018-12-16T09:36:50.013Z,78.79
2018-12-16T09:39:17.427Z,79.53
2018-12-16T09:41:44.863Z,78.84
2018-12-16T09:44:12.275Z,78.70
2018-12-16T09:46:39.712Z,78.28
2018-12-16T09:49:07.123Z,78.29
2018-12-16T09:51:34.576Z,78.39
2018-12-16T09:54:01.988Z,78.51
2018-12-16T09:56:29.421Z,78.92
2018-12-16T09:58:56.886Z,79.89
2018-12-16T10:01:24.312Z,78.98
2018-12-16T10:03:51.767Z,79.34
2018-12-16T10:06:19.194Z,79.07
2018-12-16T10:08:46.736Z,79.35
2018-12-16T10:11:14.166Z,78.35
2018-12-16T10:13:41.580Z,77.44
2018-12-16T10:16:09.025Z,76.94
2018-12-16T10:18:36.489Z,78.98
2018-12-16T10:21:03.926Z,78.86
2018-12-16T10:23:31.368Z,78.29
2018-12-16T10:25:58.790Z,78.18
2018-12-16T10:28:26.237Z,77.89
2018-12-16T10:30:53.684Z,79.98
2018-12-16T10:33:21.127Z,79.19
2018-12-16T10:35:48.568Z,79.30
2018-12-16T10:38:15.994Z,80.07
2018-12-16T10:40:43.448Z,81.16
2018-12-16T10:43:10.890Z,80.71
2018-12-16T10:45:38.331Z,80.06
2018-12-16T10:48:05.738Z,79.47
2018-12-16T10:50:33.185Z,80.21
2018-12-16T10:53:00.613Z,80.06
2018-12-16T10:55:28.056Z,80.55
2018-12-16T10:57:55.490Z,81.01
2018-12-16T11:00:28.502Z,80.23
2018-12-16T11:02:55.965Z,80.42
2018-12-16T11:05:23.797Z,80.79
2018-12-16T11:07:51.241Z,81.52
2018-12-16T11:10:18.673Z,81.26
2018-12-16T11:12:46.117Z,80.76
2018-12-16T11:15:13.537Z,80.60
2018-12-16T11:17:40.983Z,79.99
2018-12-16T11:20:08.444Z,80.04
2018-12-16T11:22:35.875Z,80.28
2018-12-16T11:25:05.798Z,80.57
2018-12-16T11:27:30.734Z,80.67
2018-12-16T11:29:58.234Z,82.02
2018-12-16T11:32:25.642Z,82.17
2018-12-16T11:34:53.092Z,83.25
2018-12-16T11:37:20.527Z,82.54
2018-12-16T11:39:47.976Z,82.84
2018-12-16T11:42:15.386Z,83.65
2018-12-16T11:44:42.814Z,83.54
2018-12-16T11:47:10.248Z,83.06
2018-12-16T11:49:37.684Z,82.56
2018-12-16T11:52:05.127Z,83.42
2018-12-16T11:54:32.597Z,84.24
2018-12-16T11:57:00.010Z,83.73
2018-12-16T11:59:27.445Z,83.94
2018-12-16T12:01:54.893Z,84.13
2018-12-16T12:04:22.338Z,84.14
2018-12-16T12:06:50.699Z,83.58
2018-12-16T12:09:19.076Z,85.03
2018-12-16T12:11:46.539Z,85.30
2018-12-16T12:14:13.946Z,84.54
2018-12-16T12:16:41.389Z,84.71
2018-12-16T12:19:08.820Z,84.79
2018-12-16T12:21:36.274Z,84.76
2018-12-16T12:24:03.722Z,84.47
2018-12-16T12:26:31.162Z,85.59
2018-12-16T12:28:58.625Z,86.06
2018-12-16T12:31:26.995Z,85.58
2018-12-16T12:33:54.501Z,86.07
2018-12-16T12:36:21.942Z,86.64
2018-12-16T12:38:49.408Z,88.00
2018-12-16T12:41:16.867Z,87.67
2018-12-16T12:43:44.328Z,87.54
2018-12-16T12:46:11.770Z,86.87
2018-12-16T12:48:39.224Z,86.58
2018-12-16T12:51:06.642Z,85.94
2018-12-16T12:53:34.763Z,86.55
2018-12-16T12:56:02.341Z,85.42
2018-12-16T12:58:29.770Z,84.78
2018-12-16T13:00:57.193Z,83.83
2018-12-16T13:03:24.639Z,85.24
2018-12-16T13:05:52.085Z,84.85
2018-12-16T13:08:19.559Z,85.73
2018-12-16T13:10:47.025Z,85.94
2018-12-16T13:13:14.509Z,85.21
2018-12-16T13:15:41.946Z,84.00
2018-12-16T13:18:09.395Z,85.29
2018-12-16T13:20:36.906Z,84.33
2018-12-16T13:23:04.341Z,85.20
2018-12-16T13:25:43.641Z,85.64
2018-12-16T13:28:11.119Z,85.51
2018-12-16T13:30:38.563Z,85.58
2018-12-16T13:33:05.986Z,86.22
2018-12-16T13:35:33.439Z,85.22
2018-12-16T13:38:00.881Z,86.45
2018-12-16T13:40:28.315Z,86.94
2018-12-16T13:42:55.768Z,86.96
2018-12-16T13:45:23.439Z,86.65
2018-12-16T13:47:50.899Z,87.13
2018-12-16T13:50:18.370Z,86.37
2018-12-16T13:52:45.845Z,86.95
2018-12-16T13:55:13.289Z,86.11
2018-12-16T13:57:41.087Z,85.70
2018-12-16T14:00:08.539Z,86.06
2018-12-16T14:02:36.019Z,86.08
2018-12-16T14:05:03.540Z,84.76
2018-12-16T14:07:30.974Z,84.00
2018-12-16T14:09:58.565Z,84.03
2018-12-16T14:12:26.048Z,83.49
2018-12-16T14:14:53.514Z,83.39
2018-12-16T14:17:20.970Z,84.37
2018-12-16T14:19:48.404Z,85.44
2018-12-16T14:22:15.851Z,85.68
2018-12-16T14:24:43.293Z,86.13
2018-12-16T14:27:10.759Z,87.13
2018-12-16T14:29:38.202Z,87.04
2018-12-16T14:32:05.683Z,86.03
2018-12-16T14:34:33.104Z,86.38
2018-12-16T14:37:00.562Z,85.70
2018-12-16T14:39:28.006Z,85.10
2018-12-16T14:41:55.455Z,84.44
2018-12-16T14:44:22.892Z,84.48
2018-12-16T14:46:51.063Z,84.21
2018-12-16T14:49:18.493Z,83.73
2018-12-16T14:51:45.954Z,83.67
2018-12-16T14:54:13.482Z,84.70
2018-12-16T14:56:40.883Z,84.72
2018-12-16T14:59:08.314Z,83.64
2018-12-16T15:01:35.755Z,83.46
2018-12-16T15:04:03.212Z,83.16
2018-12-16T15:06:30.648Z,83.71
2018-12-16T15:08:58.065Z,84.34
2018-12-16T15:11:25.538Z,84.10
2018-12-16T15:13:52.959Z,84.15
2018-12-16T15:16:21.340Z,84.82
2018-12-16T15:18:48.898Z,84.99
2018-12-16T15:21:16.797Z,85.18
2018-12-16T15:23:44.229Z,85.71
2018-12-16T15:26:11.668Z,85.83
2018-12-16T15:28:39.114Z,86.02
2018-12-16T15:31:06.580Z,86.13
2018-12-16T15:33:34.005Z,86.11
2018-12-16T15:36:01.417Z,84.74
2018-12-16T15:38:28.859Z,83.81
2018-12-16T15:40:56.321Z,83.13
2018-12-16T15:43:23.785Z,82.57
2018-12-16T15:45:51.248Z,82.47
2018-12-16T15:48:18.700Z,82.34
2018-12-16T15:50:47.829Z,82.08
2018-12-16T15:53:13.643Z,81.99
2018-12-16T15:55:41.063Z,81.75
2018-12-16T15:58:08.516Z,81.51
2018-12-16T16:00:35.960Z,81.46
2018-12-16T16:03:03.396Z,81.46
2018-12-16T16:05:30.813Z,82.05
2018-12-16T16:07:58.251Z,83.94
2018-12-16T16:10:25.733Z,83.87
2018-12-16T16:12:53.184Z,82.97
2018-12-16T16:15:20.633Z,82.93
2018-12-16T16:17:48.071Z,82.26
2018-12-16T16:20:15.523Z,82.63
2018-12-16T16:22:42.940Z,81.92
2018-12-16T16:25:10.395Z,81.27
2018-12-16T16:27:37.817Z,81.17
2018-12-16T16:30:05.260Z,81.13
2018-12-16T16:32:32.742Z,80.73
2018-12-16T16:35:00.159Z,80.61
2018-12-16T16:37:27.611Z,80.43
2018-12-16T16:39:55.046Z,80.80
2018-12-16T16:42:22.496Z,80.58
2018-12-16T16:44:49.943Z,80.64
2018-12-16T16:47:17.362Z,80.82
2018-12-16T16:49:44.814Z,80.49
2018-12-16T16:52:12.274Z,80.48
2018-12-16T16:54:39.709Z,80.28
2018-12-16T16:57:07.146Z,80.36
2018-12-16T16:59:34.582Z,80.61
2018-12-16T17:02:02.046Z,81.11
2018-12-16T17:04:29.460Z,81.48
2018-12-16T17:06:56.906Z,81.81
2018-12-16T17:09:24.368Z,81.21
2018-12-16T17:11:51.891Z,81.26
2018-12-16T17:14:20.489Z,81.97
2018-12-16T17:16:47.939Z,81.59
2018-12-16T17:19:15.433Z,81.46
2018-12-16T17:21:42.860Z,80.91
2018-12-16T17:24:10.360Z,80.96
2018-12-16T17:26:37.809Z,81.17
2018-12-16T17:29:05.525Z,80.82
2018-12-16T17:31:33.006Z,81.70
2018-12-16T17:34:00.461Z,81.28
2018-12-16T17:36:27.892Z,81.00
2018-12-16T17:38:55.383Z,81.90
2018-12-16T17:41:22.828Z,81.84
2018-12-16T17:43:50.263Z,82.12
2018-12-16T17:46:17.750Z,82.25
2018-12-16T17:48:45.173Z,84.51
2018-12-16T17:51:12.604Z,83.77
2018-12-16T17:53:40.074Z,84.08
2018-12-16T17:56:07.529Z,84.40
2018-12-16T17:58:37.247Z,83.83
2018-12-16T18:01:07.447Z,84.53
2018-12-16T18:03:34.913Z,84.91
2018-12-16T18:06:02.359Z,85.35
2018-12-16T18:08:29.779Z,84.28
2018-12-16T18:10:57.249Z,84.47
2018-12-16T18:13:25.089Z,84.70
2018-12-16T18:15:52.542Z,85.65
2018-12-16T18:18:19.994Z,85.54
2018-12-16T18:20:47.412Z,85.38
2018-12-16T18:23:14.846Z,85.75
2018-12-16T18:25:42.278Z,86.44
2018-12-16T18:28:09.741Z,86.42
2018-12-16T18:30:37.159Z,86.30
2018-12-16T18:33:04.595Z,86.42
2018-12-16T18:35:32.026Z,85.55
2018-12-16T18:37:59.512Z,85.29
2018-12-16T18:40:26.966Z,86.11
2018-12-16T18:42:54.399Z,85.23
2018-12-16T18:45:21.849Z,84.33
2018-12-16T18:47:49.269Z,84.76
2018-12-16T18:50:16.714Z,85.61
2018-12-16T18:52:44.157Z,85.25
2018-12-16T18:55:11.595Z,84.58
2018-12-16T18:57:39.026Z,84.78
2018-12-16T19:00:06.466Z,84.20
2018-12-16T19:02:33.891Z,83.81
2018-12-16T19:05:03.009Z,84.22
2018-12-16T19:07:30.442Z,83.65
2018-12-16T19:09:57.933Z,84.58
2018-12-16T19:12:25.401Z,85.39
2018-12-16T19:14:52.857Z,84.98
2018-12-16T19:17:20.285Z,84.60
2018-12-16T19:19:47.704Z,84.57
2018-12-16T19:22:15.158Z,85.79
2018-12-16T19:24:42.589Z,84.92
2018-12-16T19:27:10.033Z,84.71
2018-12-16T19:29:37.472Z,85.43
2018-12-16T19:32:04.916Z,86.01
2018-12-16T19:34:32.369Z,84.95
2018-12-16T19:36:59.890Z,83.96
2018-12-16T19:39:27.376Z,84.32
2018-12-16T19:41:54.829Z,83.36
2018-12-16T19:44:22.264Z,82.93
2018-12-16T19:46:49.727Z,82.58
2018-12-16T19:49:17.154Z,82.32
2018-12-16T19:51:44.607Z,82.22
2018-12-16T19:54:12.102Z,82.56
2018-12-16T19:56:39.546Z,83.49
2018-12-16T19:59:06.999Z,83.03
2018-12-16T20:01:45.965Z,84.05
2018-12-16T20:04:15.922Z,84.92
2018-12-16T20:06:44.126Z,83.84
2018-12-16T20:09:11.560Z,83.30
2018-12-16T20:11:39.050Z,83.29
2018-12-16T20:14:06.450Z,84.53
2018-12-16T20:16:33.907Z,84.02
2018-12-16T20:19:01.375Z,83.35
2018-12-16T20:21:28.806Z,83.04
2018-12-16T20:23:56.260Z,83.72
2018-12-16T20:26:23.729Z,83.72
2018-12-16T20:28:51.155Z,83.86
2018-12-16T20:31:18.592Z,84.35
2018-12-16T20:33:46.039Z,85.40
2018-12-16T20:36:13.508Z,84.33
2018-12-16T20:38:40.955Z,84.36
2018-12-16T20:41:09.249Z,83.60
2018-12-16T20:43:36.813Z,83.22
2018-12-16T20:46:04.227Z,83.50
2018-12-16T20:48:31.690Z,83.88
2018-12-16T20:50:59.121Z,83.77
2018-12-16T20:53:26.531Z,84.09
2018-12-16T20:55:53.988Z,82.69
2018-12-16T20:58:21.410Z,82.76
2018-12-16T21:00:48.863Z,83.36
2018-12-16T21:03:17.163Z,82.94
2018-12-16T21:05:44.695Z,82.66
2018-12-16T21:08:12.146Z,82.90
2018-12-16T21:10:39.563Z,83.06
2018-12-16T21:13:12.649Z,84.25
2018-12-16T21:15:45.673Z,84.75
2018-12-16T21:18:18.634Z,84.02
2018-12-16T21:20:46.092Z,84.04
2018-12-16T21:23:13.531Z,84.52
2018-12-16T21:25:41.697Z,83.87
2018-12-16T21:28:09.158Z,84.27
2018-12-16T21:30:36.575Z,84.24
2018-12-16T21:33:04.039Z,84.61
2018-12-16T21:35:31.469Z,84.20
2018-12-16T21:37:58.925Z,84.12
2018-12-16T21:40:26.377Z,84.11
2018-12-16T21:42:53.812Z,84.15
2018-12-16T21:45:21.265Z,84.63
2018-12-16T21:47:48.714Z,83.97
2018-12-16T21:50:16.139Z,83.49
2018-12-16T21:52:43.578Z,83.06
2018-12-16T21:55:10.990Z,83.27
2018-12-16T21:57:38.453Z,82.73
2018-12-16T22:00:05.877Z,82.76
2018-12-16T22:02:33.318Z,83.00
2018-12-16T22:05:00.785Z,83.07
2018-12-16T22:07:28.245Z,83.06
2018-12-16T22:09:55.682Z,83.76
2018-12-16T22:12:23.145Z,84.15
2018-12-16T22:14:50.946Z,83.04
2018-12-16T22:17:18.515Z,82.76
2018-12-16T22:19:45.937Z,83.60
2018-12-16T22:22:13.347Z,83.55
2018-12-16T22:24:40.805Z,82.87
2018-12-16T22:27:08.213Z,82.71
2018-12-16T22:29:35.650Z,83.13
2018-12-16T22:32:03.102Z,83.63
2018-12-16T22:34:30.519Z,83.48
2018-12-16T22:36:57.985Z,83.02
2018-12-16T22:39:25.433Z,83.08
2018-12-16T22:41:52.874Z,82.87
2018-12-16T22:44:20.317Z,82.18
2018-12-16T22:46:47.791Z,82.15
2018-12-16T22:49:15.231Z,82.45
2018-12-16T22:51:42.661Z,81.78
2018-12-16T22:54:10.133Z,81.54
2018-12-16T22:56:37.662Z,81.36
2018-12-16T22:59:05.128Z,82.21
2018-12-16T23:01:32.600Z,82.14
2018-12-16T23:04:00.130Z,82.20
2018-12-16T23:06:27.555Z,81.71
2018-12-16T23:08:54.998Z,81.64
2018-12-16T23:11:22.418Z,81.29
2018-12-16T23:13:49.867Z,81.31
2018-12-16T23:16:17.311Z,82.78
2018-12-16T23:18:44.765Z,84.08
2018-12-16T23:21:12.184Z,84.37
2018-12-16T23:23:39.717Z,84.73
2018-12-16T23:26:07.107Z,84.75
2018-12-16T23:28:34.701Z,86.15
2018-12-16T23:31:02.120Z,85.33
2018-12-16T23:33:29.573Z,84.45
2018-12-16T23:35:57.025Z,84.12
2018-12-16T23:38:24.478Z,84.42
2018-12-16T23:40:51.924Z,85.52
2018-12-16T23:43:19.362Z,86.08
2018-12-16T23:45:46.791Z,84.84
2018-12-16T23:48:14.217Z,85.97
2018-12-16T23:50:41.631Z,84.72
2018-12-16T23:53:09.113Z,84.58
2018-12-16T23:55:38.498Z,83.46
2018-12-16T23:58:06.045Z,84.46
